createdAt,value
2018-06-24T00:01:06.681Z,14.62
2018-06-24T00:03:35.702Z,14.12
2018-06-24T00:06:04.395Z,13.99
2018-06-24T00:08:34.020Z,13.95
2018-06-24T00:11:03.341Z,13.89
2018-06-24T00:13:32.318Z,14.51
2018-06-24T00:16:01.193Z,13.99
2018-06-24T00:18:30.104Z,13.90
2018-06-24T00:20:59.322Z,13.84
2018-06-24T00:23:28.469Z,13.80
2018-06-24T00:25:57.831Z,14.45
2018-06-24T00:28:28.323Z,14.00
2018-06-24T00:31:00.354Z,13.88
2018-06-24T00:33:30.706Z,13.81
2018-06-24T00:36:00.809Z,13.75
2018-06-24T00:38:29.368Z,13.71
2018-06-24T00:40:58.328Z,13.67
2018-06-24T00:43:27.249Z,13.65
2018-06-24T00:45:56.547Z,13.61
2018-06-24T00:48:26.020Z,13.58
2018-06-24T00:50:55.136Z,13.57
2018-06-24T00:53:23.910Z,13.57
2018-06-24T00:55:54.673Z,13.56
2018-06-24T00:58:24.742Z,13.55
2018-06-24T01:00:57.400Z,14.23
2018-06-24T01:03:27.531Z,13.76
2018-06-24T01:05:56.812Z,13.64
2018-06-24T01:08:26.901Z,13.60
2018-06-24T01:10:56.696Z,13.58
2018-06-24T01:13:25.864Z,13.60
2018-06-24T01:15:55.434Z,13.59
2018-06-24T01:18:25.930Z,13.59
2018-06-24T01:20:56.491Z,13.61
2018-06-24T01:23:25.993Z,13.60
2018-06-24T01:25:55.870Z,13.57
2018-06-24T01:28:26.532Z,13.56
2018-06-24T01:30:55.544Z,13.57
2018-06-24T01:33:24.573Z,13.57
2018-06-24T01:35:54.925Z,13.57
2018-06-24T01:38:24.028Z,13.54
2018-06-24T01:40:53.516Z,13.55
2018-06-24T01:43:23.148Z,13.55
2018-06-24T01:45:53.549Z,13.55
2018-06-24T01:48:23.569Z,13.56
2018-06-24T01:50:53.998Z,13.57
2018-06-24T01:53:23.011Z,13.58
2018-06-24T01:55:54.188Z,13.57
2018-06-24T01:58:23.611Z,13.57
2018-06-24T02:00:53.575Z,13.56
2018-06-24T02:03:22.337Z,14.24
2018-06-24T02:05:51.901Z,13.83
2018-06-24T02:08:23.220Z,13.73
2018-06-24T02:10:52.477Z,13.70
2018-06-24T02:13:23.553Z,13.68
2018-06-24T02:15:54.552Z,13.65
2018-06-24T02:18:24.636Z,13.64
2018-06-24T02:20:54.664Z,13.64
2018-06-24T02:23:23.984Z,13.64
2018-06-24T02:25:53.559Z,13.64
2018-06-24T02:28:22.629Z,13.64
2018-06-24T02:30:53.071Z,13.65
2018-06-24T02:33:23.527Z,13.64
2018-06-24T02:35:53.396Z,13.64
2018-06-24T02:38:22.385Z,13.65
2018-06-24T02:40:51.481Z,13.65
2018-06-24T02:43:21.239Z,13.65
2018-06-24T02:45:51.148Z,13.66
2018-06-24T02:48:20.915Z,13.67
2018-06-24T02:50:49.883Z,13.68
2018-06-24T02:53:21.156Z,13.69
2018-06-24T02:55:51.641Z,13.70
2018-06-24T02:58:21.420Z,13.69
2018-06-24T03:00:50.443Z,13.71
2018-06-24T03:03:20.605Z,13.72
2018-06-24T03:05:52.962Z,13.69
2018-06-24T03:08:22.200Z,13.70
2018-06-24T03:10:51.072Z,14.41
2018-06-24T03:13:23.676Z,13.98
2018-06-24T03:15:54.484Z,13.89
2018-06-24T03:18:23.550Z,13.87
2018-06-24T03:20:52.433Z,13.89
2018-06-24T03:23:21.900Z,13.90
2018-06-24T03:25:51.286Z,13.90
2018-06-24T03:28:21.263Z,13.91
2018-06-24T03:30:50.393Z,13.91
2018-06-24T03:33:20.070Z,13.93
2018-06-24T03:35:49.710Z,13.94
2018-06-24T03:38:18.545Z,14.68
2018-06-24T03:40:47.500Z,14.20
2018-06-24T03:43:16.698Z,14.10
2018-06-24T03:45:45.413Z,14.06
2018-06-24T03:48:14.266Z,14.01
2018-06-24T03:50:43.120Z,14.01
2018-06-24T03:53:11.989Z,13.99
2018-06-24T03:55:40.810Z,14.01
2018-06-24T03:58:09.773Z,14.01
2018-06-24T04:00:38.950Z,14.02
2018-06-24T04:03:08.084Z,14.02
2018-06-24T04:05:36.737Z,14.76
2018-06-24T04:08:05.497Z,14.95
2018-06-24T04:10:34.192Z,14.37
2018-06-24T04:13:02.933Z,14.25
2018-06-24T04:15:31.595Z,14.17
2018-06-24T04:18:00.312Z,14.14
2018-06-24T04:20:29.017Z,14.12
2018-06-24T04:22:57.703Z,14.87
2018-06-24T04:25:26.455Z,14.41
2018-06-24T04:27:55.235Z,14.35
2018-06-24T04:30:25.400Z,14.35
2018-06-24T04:32:54.209Z,14.38
2018-06-24T04:35:23.566Z,14.35
2018-06-24T04:37:53.093Z,14.31
2018-06-24T04:40:22.312Z,14.31
2018-06-24T04:42:51.414Z,14.35
2018-06-24T04:45:20.591Z,14.37
2018-06-24T04:47:52.496Z,14.39
2018-06-24T04:50:21.679Z,14.43
2018-06-24T04:52:50.814Z,14.53
2018-06-24T04:55:19.755Z,14.56
2018-06-24T04:57:48.545Z,14.58
2018-06-24T05:00:17.405Z,15.44
2018-06-24T05:02:46.463Z,15.70
2018-06-24T05:05:15.400Z,15.89
2018-06-24T05:07:44.359Z,15.25
2018-06-24T05:10:14.101Z,15.21
2018-06-24T05:12:43.255Z,15.16
2018-06-24T05:15:12.233Z,15.15
2018-06-24T05:17:40.811Z,15.15
2018-06-24T05:20:09.519Z,15.18
2018-06-24T05:22:38.192Z,15.17
2018-06-24T05:25:06.907Z,15.24
2018-06-24T05:27:35.594Z,15.30
2018-06-24T05:30:04.350Z,15.35
2018-06-24T05:32:33.117Z,15.39
2018-06-24T05:35:01.762Z,15.50
2018-06-24T05:37:30.629Z,15.59
2018-06-24T05:39:59.289Z,15.62
2018-06-24T05:42:27.994Z,15.66
2018-06-24T05:44:56.706Z,15.77
2018-06-24T05:47:25.584Z,16.01
2018-06-24T05:49:54.317Z,16.07
2018-06-24T05:52:23.073Z,16.19
2018-06-24T05:54:51.817Z,16.26
2018-06-24T05:57:20.492Z,16.41
2018-06-24T05:59:49.271Z,17.54
2018-06-24T06:02:17.918Z,16.86
2018-06-24T06:04:46.603Z,16.81
2018-06-24T06:07:15.274Z,16.81
2018-06-24T06:09:44.011Z,18.02
2018-06-24T06:12:12.664Z,17.22
2018-06-24T06:14:41.392Z,17.13
2018-06-24T06:17:10.072Z,17.16
2018-06-24T06:19:38.818Z,18.28
2018-06-24T06:22:07.481Z,17.38
2018-06-24T06:24:36.176Z,17.24
2018-06-24T06:27:04.836Z,17.22
2018-06-24T06:29:33.521Z,17.37
2018-06-24T06:32:02.219Z,17.34
2018-06-24T06:34:30.960Z,17.33
2018-06-24T06:36:59.624Z,17.44
2018-06-24T06:39:28.535Z,18.75
2018-06-24T06:41:57.343Z,18.08
2018-06-24T06:44:26.020Z,17.97
2018-06-24T06:46:54.796Z,17.92
2018-06-24T06:49:23.496Z,17.91
2018-06-24T06:51:52.157Z,18.08
2018-06-24T06:54:21.123Z,18.12
2018-06-24T06:56:50.013Z,18.02
2018-06-24T06:59:18.746Z,17.83
2018-06-24T07:01:47.402Z,17.73
2018-06-24T07:04:16.096Z,17.66
2018-06-24T07:06:44.749Z,17.78
2018-06-24T07:09:15.066Z,17.94
2018-06-24T07:11:43.963Z,18.26
2018-06-24T07:14:12.718Z,18.44
2018-06-24T07:16:41.373Z,18.36
2018-06-24T07:19:10.063Z,18.41
2018-06-24T07:21:38.729Z,19.55
2018-06-24T07:24:07.532Z,18.66
2018-06-24T07:26:36.209Z,18.53
2018-06-24T07:29:06.584Z,18.47
2018-06-24T07:31:35.285Z,18.50
2018-06-24T07:34:04.007Z,19.80
2018-06-24T07:36:32.674Z,19.00
2018-06-24T07:39:01.814Z,18.73
2018-06-24T07:41:30.574Z,19.69
2018-06-24T07:43:59.457Z,18.65
2018-06-24T07:46:28.352Z,19.51
2018-06-24T07:48:57.134Z,18.47
2018-06-24T07:51:25.982Z,18.11
2018-06-24T07:53:54.682Z,17.99
2018-06-24T07:56:23.424Z,17.93
2018-06-24T07:58:52.123Z,17.92
2018-06-24T08:01:21.443Z,17.79
2018-06-24T08:03:57.906Z,17.84
2018-06-24T08:06:26.622Z,17.78
2018-06-24T08:08:55.437Z,17.75
2018-06-24T08:11:24.160Z,17.62
2018-06-24T08:13:52.806Z,17.45
2018-06-24T08:16:21.527Z,18.50
2018-06-24T08:18:50.137Z,17.69
2018-06-24T08:21:18.832Z,17.62
2018-06-24T08:23:47.489Z,18.78
2018-06-24T08:26:16.223Z,17.98
2018-06-24T08:28:44.880Z,17.82
2018-06-24T08:31:13.567Z,17.61
2018-06-24T08:33:42.270Z,17.39
2018-06-24T08:36:10.996Z,17.18
2018-06-24T08:38:39.693Z,16.91
2018-06-24T08:41:08.401Z,16.76
2018-06-24T08:43:37.100Z,16.74
2018-06-24T08:46:05.791Z,17.66
2018-06-24T08:48:35.373Z,17.10
2018-06-24T08:51:04.072Z,18.06
2018-06-24T08:53:32.755Z,17.63
2018-06-24T08:56:01.460Z,17.46
2018-06-24T08:58:30.171Z,17.39
2018-06-24T09:00:58.859Z,17.22
2018-06-24T09:03:27.592Z,17.14
2018-06-24T09:05:57.841Z,16.91
2018-06-24T09:08:26.576Z,16.74
2018-06-24T09:10:55.313Z,16.55
2018-06-24T09:13:23.967Z,16.48
2018-06-24T09:15:52.726Z,16.52
2018-06-24T09:18:22.558Z,16.57
2018-06-24T09:20:51.277Z,16.67
2018-06-24T09:23:19.955Z,16.76
2018-06-24T09:25:48.736Z,16.96
2018-06-24T09:28:17.418Z,17.02
2018-06-24T09:30:46.194Z,17.08
2018-06-24T09:33:15.095Z,17.07
2018-06-24T09:35:43.938Z,17.06
2018-06-24T09:38:12.583Z,17.85
2018-06-24T09:40:41.272Z,17.11
2018-06-24T09:43:09.908Z,16.89
2018-06-24T09:45:38.598Z,16.88
2018-06-24T09:48:07.333Z,17.00
2018-06-24T09:50:36.030Z,17.12
2018-06-24T09:53:04.702Z,17.24
2018-06-24T09:55:33.456Z,17.27
2018-06-24T09:58:02.125Z,17.30
2018-06-24T10:00:30.853Z,18.20
2018-06-24T10:02:59.521Z,17.55
2018-06-24T10:05:28.245Z,17.28
2018-06-24T10:07:56.945Z,18.03
2018-06-24T10:10:25.632Z,17.45
2018-06-24T10:12:54.335Z,17.43
2018-06-24T10:15:23.099Z,17.38
2018-06-24T10:17:51.693Z,17.31
2018-06-24T10:20:20.411Z,17.27
2018-06-24T10:22:49.101Z,18.30
2018-06-24T10:25:17.959Z,17.87
2018-06-24T10:27:46.652Z,17.97
2018-06-24T10:30:15.460Z,18.17
2018-06-24T10:32:46.358Z,18.38
2018-06-24T10:35:15.377Z,18.48
2018-06-24T10:37:44.896Z,18.57
2018-06-24T10:40:14.104Z,18.57
2018-06-24T10:42:43.275Z,18.62
2018-06-24T10:45:12.068Z,18.60
2018-06-24T10:47:41.146Z,18.73
2018-06-24T10:50:10.121Z,18.93
2018-06-24T10:52:39.637Z,19.08
2018-06-24T10:55:08.623Z,19.04
2018-06-24T10:57:42.064Z,19.29
2018-06-24T11:00:12.520Z,19.55
2018-06-24T11:02:41.826Z,19.52
2018-06-24T11:05:11.168Z,19.68
2018-06-24T11:07:40.924Z,19.57
2018-06-24T11:10:09.948Z,19.68
2018-06-24T11:12:38.841Z,20.08
2018-06-24T11:15:10.483Z,21.85
2018-06-24T11:17:39.779Z,21.06
2018-06-24T11:20:09.229Z,20.92
2018-06-24T11:22:38.117Z,20.94
2018-06-24T11:25:06.830Z,20.95
2018-06-24T11:27:35.561Z,20.66
2018-06-24T11:30:04.659Z,20.41
2018-06-24T11:32:33.438Z,20.38
2018-06-24T11:35:02.160Z,20.42
2018-06-24T11:37:31.290Z,20.26
2018-06-24T11:39:59.984Z,20.00
2018-06-24T11:42:28.762Z,19.62
2018-06-24T11:44:57.481Z,19.46
2018-06-24T11:47:26.229Z,19.27
2018-06-24T11:49:54.879Z,19.01
2018-06-24T11:52:23.624Z,18.99
2018-06-24T11:54:52.613Z,19.20
2018-06-24T11:57:21.728Z,19.50
2018-06-24T11:59:50.421Z,19.71
2018-06-24T12:02:19.353Z,19.86
2018-06-24T12:04:48.704Z,19.91
2018-06-24T12:07:17.672Z,19.88
2018-06-24T12:09:46.447Z,19.79
2018-06-24T12:12:15.119Z,19.76
2018-06-24T12:14:43.777Z,21.03
2018-06-24T12:17:12.493Z,20.08
2018-06-24T12:19:41.585Z,19.81
2018-06-24T12:22:11.162Z,19.67
2018-06-24T12:24:40.328Z,19.64
2018-06-24T12:27:09.439Z,19.52
2018-06-24T12:29:38.546Z,19.41
2018-06-24T12:32:07.611Z,19.42
2018-06-24T12:34:36.978Z,19.38
2018-06-24T12:37:06.166Z,20.42
2018-06-24T12:39:35.153Z,19.40
2018-06-24T12:42:05.515Z,19.16
2018-06-24T12:44:34.824Z,19.19
2018-06-24T12:47:04.059Z,19.24
2018-06-24T12:49:33.421Z,19.30
2018-06-24T12:52:02.526Z,19.38
2018-06-24T12:54:34.410Z,19.31
2018-06-24T12:57:03.280Z,19.23
2018-06-24T12:59:32.183Z,19.20
2018-06-24T13:02:00.715Z,19.32
2018-06-24T13:04:29.387Z,19.38
2018-06-24T13:06:58.076Z,20.46
2018-06-24T13:09:26.814Z,19.79
2018-06-24T13:11:55.565Z,19.77
2018-06-24T13:14:25.329Z,19.87
2018-06-24T13:16:54.029Z,19.98
2018-06-24T13:19:23.029Z,19.95
2018-06-24T13:21:51.731Z,20.04
2018-06-24T13:24:20.390Z,20.11
2018-06-24T13:26:49.251Z,20.15
2018-06-24T13:29:17.867Z,20.20
2018-06-24T13:31:46.543Z,20.17
2018-06-24T13:34:15.259Z,20.20
2018-06-24T13:36:44.031Z,20.19
2018-06-24T13:39:12.732Z,20.13
2018-06-24T13:41:41.483Z,20.26
2018-06-24T13:44:12.218Z,21.48
2018-06-24T13:46:40.952Z,20.70
2018-06-24T13:49:11.238Z,20.67
2018-06-24T13:51:40.108Z,20.69
2018-06-24T13:54:08.943Z,20.56
2018-06-24T13:56:37.622Z,20.56
2018-06-24T13:59:10.565Z,21.79
2018-06-24T14:01:39.240Z,20.75
2018-06-24T14:04:08.803Z,20.39
2018-06-24T14:06:37.469Z,20.09
2018-06-24T14:09:06.258Z,19.77
2018-06-24T14:11:34.925Z,19.58
2018-06-24T14:14:03.654Z,19.42
2018-06-24T14:16:32.346Z,19.29
2018-06-24T14:19:01.090Z,20.36
2018-06-24T14:21:29.766Z,20.52
2018-06-24T14:23:58.492Z,19.58
2018-06-24T14:26:27.385Z,19.43
2018-06-24T14:28:56.220Z,19.38
2018-06-24T14:31:25.107Z,19.19
2018-06-24T14:33:54.010Z,19.18
2018-06-24T14:36:26.029Z,19.16
2018-06-24T14:38:54.600Z,19.14
2018-06-24T14:41:23.369Z,19.16
2018-06-24T14:43:51.997Z,19.15
2018-06-24T14:46:20.660Z,19.08
2018-06-24T14:48:49.506Z,18.98
2018-06-24T14:51:18.167Z,18.89
2018-06-24T14:53:46.892Z,18.84
2018-06-24T14:56:15.670Z,19.81
2018-06-24T14:58:44.452Z,18.98
2018-06-24T15:04:00.749Z,18.60
2018-06-24T15:06:29.413Z,18.53
2018-06-24T15:08:58.136Z,19.45
2018-06-24T15:11:26.882Z,18.66
2018-06-24T15:13:55.576Z,18.50
2018-06-24T15:16:24.241Z,19.44
2018-06-24T15:18:52.940Z,18.72
2018-06-24T15:21:21.634Z,18.55
2018-06-24T15:23:51.313Z,18.46
2018-06-24T15:26:20.134Z,18.31
2018-06-24T15:28:48.834Z,18.11
2018-06-24T15:31:17.540Z,18.01
2018-06-24T15:56:29.297Z,18.03
2018-06-24T15:59:00.011Z,18.07
2018-06-24T16:01:29.115Z,18.15
2018-06-24T16:03:57.938Z,18.19
2018-06-24T16:06:26.717Z,18.21
2018-06-24T16:08:55.557Z,19.18
2018-06-24T16:11:24.451Z,18.63
2018-06-24T16:13:53.120Z,18.56
2018-06-24T16:16:22.112Z,18.48
2018-06-24T16:18:52.678Z,18.40
2018-06-24T16:24:10.308Z,18.59
2018-06-24T16:26:40.464Z,18.43
2018-06-24T16:29:12.154Z,18.17
2018-06-24T16:31:41.165Z,17.94
2018-06-24T16:34:10.667Z,17.81
2018-06-24T16:36:40.594Z,17.73
2018-06-24T16:39:10.702Z,17.65
2018-06-24T16:41:39.417Z,17.65
2018-06-24T16:44:09.021Z,17.71
2018-06-24T16:46:37.728Z,17.66
2018-06-24T16:49:07.674Z,17.61
2018-06-24T16:51:40.424Z,17.47
2018-06-24T16:54:10.699Z,17.36
2018-06-24T16:56:39.807Z,17.26
2018-06-24T16:59:09.986Z,17.19
2018-06-24T17:01:39.548Z,17.14
2018-06-24T17:04:08.676Z,17.15
2018-06-24T17:06:37.876Z,17.22
2018-06-24T17:09:06.632Z,17.26
2018-06-24T17:11:35.643Z,18.18
2018-06-24T17:14:09.400Z,17.52
2018-06-24T17:16:42.757Z,17.42
2018-06-24T17:19:11.821Z,17.37
2018-06-24T17:21:40.924Z,17.41
2018-06-24T17:24:09.856Z,17.45
2018-06-24T17:26:38.708Z,17.42
2018-06-24T17:29:07.549Z,17.41
2018-06-24T17:31:36.428Z,17.31
2018-06-24T17:34:05.353Z,17.21
2018-06-24T17:36:34.121Z,17.16
2018-06-24T17:39:02.892Z,17.08
2018-06-24T17:41:32.654Z,17.06
2018-06-24T17:44:01.354Z,16.98
2018-06-24T17:46:30.733Z,16.92
2018-06-24T17:51:53.218Z,16.80
2018-06-24T17:54:22.209Z,16.77
2018-06-24T17:56:51.255Z,16.74
2018-06-24T17:59:21.180Z,16.75
2018-06-24T18:01:50.193Z,16.75
2018-06-24T18:04:19.254Z,16.74
2018-06-24T18:06:48.447Z,16.72
2018-06-24T18:09:19.731Z,16.72
2018-06-24T18:11:48.709Z,17.51
2018-06-24T18:17:05.424Z,16.87
2018-06-24T18:19:34.637Z,16.80
2018-06-24T18:22:04.315Z,16.75
2018-06-24T18:24:33.702Z,16.70
2018-06-24T18:27:04.351Z,17.39
2018-06-24T18:29:38.907Z,17.55
2018-06-24T18:32:10.301Z,16.88
2018-06-24T18:34:41.676Z,16.71
2018-06-24T18:37:13.930Z,16.59
2018-06-24T18:39:47.165Z,16.49
2018-06-24T18:42:17.220Z,17.20
2018-06-24T18:44:47.418Z,17.37
2018-06-24T18:47:16.280Z,16.79
2018-06-24T18:49:45.444Z,16.64
2018-06-24T18:52:14.523Z,16.53
2018-06-24T18:54:43.536Z,17.20
2018-06-24T18:57:16.879Z,17.34
2018-06-24T18:59:46.135Z,17.40
2018-06-24T19:02:18.962Z,16.80
2018-06-24T19:04:47.883Z,16.66
2018-06-24T19:07:25.887Z,16.53
2018-06-24T19:09:55.158Z,16.37
2018-06-24T19:12:23.989Z,16.28
2018-06-24T19:14:55.780Z,16.17
2018-06-24T19:17:24.913Z,16.11
2018-06-24T19:19:56.492Z,16.79
2018-06-24T19:22:25.756Z,16.26
2018-06-24T19:24:54.877Z,16.14
2018-06-24T19:27:27.308Z,16.82
2018-06-24T19:29:59.199Z,16.30
2018-06-24T19:32:28.935Z,16.20
2018-06-24T19:34:58.201Z,16.15
2018-06-24T19:40:15.486Z,16.24
2018-06-24T19:42:45.741Z,16.86
2018-06-24T19:45:17.440Z,16.33
2018-06-24T19:47:48.797Z,16.91
2018-06-24T19:50:17.585Z,16.34
2018-06-24T19:52:47.635Z,16.20
2018-06-24T19:55:23.085Z,16.10
2018-06-24T19:57:58.534Z,16.01
2018-06-24T20:00:28.673Z,15.97
2018-06-24T20:02:59.072Z,15.91
2018-06-24T20:05:30.349Z,15.89
2018-06-24T20:08:00.841Z,15.88
2018-06-24T20:10:30.933Z,15.85
2018-06-24T20:12:59.456Z,15.84
2018-06-24T20:15:28.172Z,15.79
2018-06-24T20:17:56.897Z,15.77
2018-06-24T20:20:25.711Z,15.73
2018-06-24T20:22:54.450Z,16.42
2018-06-24T20:25:23.206Z,15.91
2018-06-24T20:27:52.646Z,15.80
2018-06-24T20:30:21.390Z,16.47
2018-06-24T20:32:50.083Z,15.92
2018-06-24T20:35:18.888Z,15.82
2018-06-24T20:37:47.667Z,15.79
2018-06-24T20:40:19.195Z,15.75
2018-06-24T20:42:47.944Z,15.72
2018-06-24T20:45:16.677Z,15.70
2018-06-24T20:47:45.518Z,16.40
2018-06-24T20:50:14.203Z,15.93
2018-06-24T20:52:42.917Z,16.57
2018-06-24T20:55:11.583Z,16.06
2018-06-24T20:57:40.363Z,15.94
2018-06-24T21:00:09.604Z,15.88
2018-06-24T21:02:39.232Z,15.85
2018-06-24T21:05:07.975Z,15.84
2018-06-24T21:07:52.368Z,15.81
2018-06-24T21:10:21.192Z,15.78
2018-06-24T21:12:49.909Z,15.78
2018-06-24T21:15:19.791Z,15.75
2018-06-24T21:17:48.575Z,16.44
2018-06-24T21:20:17.432Z,15.92
2018-06-24T21:22:46.226Z,15.82
2018-06-24T21:25:14.986Z,15.78
2018-06-24T21:27:43.745Z,16.50
2018-06-24T21:30:12.623Z,15.99
2018-06-24T21:32:41.486Z,15.88
2018-06-24T21:37:58.213Z,15.77
2018-06-24T21:40:31.898Z,15.73
2018-06-24T21:43:00.943Z,15.70
2018-06-24T21:45:30.853Z,15.65
2018-06-24T21:47:59.473Z,16.31
2018-06-24T21:50:28.258Z,16.46
2018-06-24T21:52:59.794Z,15.89
2018-06-24T21:55:28.912Z,15.74
2018-06-24T21:57:58.006Z,15.64
2018-06-24T22:00:27.066Z,15.59
2018-06-24T22:02:56.000Z,15.56
2018-06-24T22:05:24.838Z,15.50
2018-06-24T22:07:53.700Z,15.48
2018-06-24T22:10:22.536Z,16.17
2018-06-24T22:12:51.674Z,15.66
2018-06-24T22:15:20.383Z,15.53
2018-06-24T22:17:49.441Z,15.46
2018-06-24T22:20:18.178Z,15.43
2018-06-24T22:22:47.445Z,15.37
2018-06-24T22:25:16.257Z,15.33
2018-06-24T22:27:45.084Z,15.31
2018-06-24T22:30:13.879Z,15.28
2018-06-24T22:32:42.844Z,15.25
2018-06-24T22:35:11.579Z,15.91
2018-06-24T22:37:40.321Z,15.46
2018-06-24T22:40:10.041Z,15.39
2018-06-24T22:42:40.222Z,15.34
2018-06-24T22:45:10.067Z,15.29
2018-06-24T22:47:39.423Z,15.24
2018-06-24T22:50:08.282Z,15.20
2018-06-24T22:52:37.157Z,15.19
2018-06-24T22:55:05.953Z,15.17
2018-06-24T22:57:35.263Z,15.15
2018-06-24T23:00:04.694Z,15.13
2018-06-24T23:02:33.293Z,15.13
2018-06-24T23:05:03.315Z,15.78
2018-06-24T23:07:32.213Z,15.35
2018-06-24T23:10:01.013Z,15.26
2018-06-24T23:12:30.164Z,15.21
2018-06-24T23:14:59.023Z,15.20
2018-06-24T23:17:28.809Z,15.16
2018-06-24T23:19:57.562Z,15.13
2018-06-24T23:22:26.380Z,15.13
2018-06-24T23:24:55.174Z,15.12
2018-06-24T23:27:24.034Z,15.12
2018-06-24T23:29:52.845Z,15.12
2018-06-24T23:32:21.597Z,15.13
2018-06-24T23:34:50.699Z,15.12
2018-06-24T23:37:21.101Z,15.10
2018-06-24T23:39:51.298Z,15.08
2018-06-24T23:42:20.133Z,15.08
2018-06-24T23:44:48.907Z,15.07
2018-06-24T23:47:17.794Z,15.08
2018-06-24T23:49:46.900Z,15.07
2018-06-24T23:52:15.754Z,15.06
2018-06-24T23:54:44.696Z,15.06
2018-06-24T23:57:13.502Z,15.06
2018-06-24T23:59:42.522Z,15.04
